createdAt,value
2023-04-18T00:00:45.214Z,9.56
2023-04-18T00:03:16.248Z,9.54
2023-04-18T00:05:48.276Z,9.55
2023-04-18T00:08:18.694Z,9.58
2023-04-18T00:10:48.955Z,9.62
2023-04-18T00:13:21.768Z,9.61
2023-04-18T00:15:54.337Z,9.62
2023-04-18T00:18:26.826Z,9.62
2023-04-18T00:20:57.178Z,9.65
2023-04-18T00:23:28.473Z,9.64
2023-04-18T00:25:58.694Z,9.67
2023-04-18T00:28:31.631Z,9.67
2023-04-18T00:31:03.389Z,9.70
2023-04-18T00:33:35.292Z,9.71
2023-04-18T00:36:05.528Z,9.69
2023-04-18T00:38:35.735Z,9.70
2023-04-18T00:41:06.150Z,9.68
2023-04-18T00:43:39.130Z,9.70
2023-04-18T00:46:11.238Z,9.71
2023-04-18T00:48:45.265Z,9.65
2023-04-18T00:51:15.872Z,9.69
2023-04-18T00:53:47.577Z,9.67
2023-04-18T00:56:18.568Z,9.63
2023-04-18T00:58:51.421Z,9.66
2023-04-18T01:01:22.346Z,9.67
2023-04-18T01:03:53.159Z,9.69
2023-04-18T01:06:23.956Z,9.69
2023-04-18T01:08:54.332Z,9.67
2023-04-18T01:11:24.584Z,9.67
2023-04-18T01:14:07.581Z,9.63
2023-04-18T01:16:40.306Z,9.65
2023-04-18T01:19:10.560Z,9.60
2023-04-18T01:21:44.072Z,9.65
2023-04-18T01:24:20.679Z,9.60
2023-04-18T01:26:54.610Z,9.64
2023-04-18T01:29:27.587Z,9.65
2023-04-18T01:31:57.796Z,9.64
2023-04-18T01:34:27.944Z,9.65
2023-04-18T01:36:58.139Z,9.64
2023-04-18T01:39:31.372Z,9.66
2023-04-18T01:42:02.303Z,9.63
2023-04-18T01:44:32.519Z,9.62
2023-04-18T01:47:02.971Z,9.64
2023-04-18T01:49:38.144Z,9.61
2023-04-18T01:52:08.363Z,9.64
2023-04-18T01:54:41.177Z,9.69
2023-04-18T01:57:11.347Z,9.66
2023-04-18T01:59:41.766Z,9.64
2023-04-18T02:02:12.179Z,9.66
2023-04-18T02:04:42.469Z,9.63
2023-04-18T02:07:13.522Z,9.65
2023-04-18T02:09:46.448Z,9.69
2023-04-18T02:12:16.714Z,9.69
2023-04-18T02:14:47.293Z,9.62
2023-04-18T02:17:17.462Z,9.62
2023-04-18T02:19:47.677Z,9.66
2023-04-18T02:22:17.816Z,9.66
2023-04-18T02:24:50.678Z,9.66
2023-04-18T02:27:23.598Z,9.65
2023-04-18T02:29:53.755Z,9.63
2023-04-18T02:32:24.008Z,9.64
2023-04-18T02:34:54.233Z,9.60
2023-04-18T02:37:24.767Z,9.61
2023-04-18T02:39:57.624Z,9.63
2023-04-18T02:42:31.094Z,9.64
2023-04-18T02:45:01.397Z,9.66
2023-04-18T02:47:37.566Z,9.69
2023-04-18T02:50:14.576Z,9.73
2023-04-18T02:52:44.826Z,9.72
2023-04-18T02:55:18.023Z,9.73
2023-04-18T02:57:48.935Z,9.74
2023-04-18T03:00:42.156Z,9.75
2023-04-18T03:03:26.138Z,9.75
2023-04-18T03:06:08.616Z,9.76
2023-04-18T03:08:39.194Z,9.78
2023-04-18T03:11:14.661Z,9.77
2023-04-18T03:13:44.903Z,9.75
2023-04-18T03:16:16.097Z,9.73
2023-04-18T03:18:47.191Z,9.74
2023-04-18T03:21:18.063Z,9.74
2023-04-18T03:23:48.462Z,9.74
2023-04-18T03:26:21.591Z,9.71
2023-04-18T03:28:51.848Z,9.67
2023-04-18T03:31:22.302Z,9.75
2023-04-18T03:33:52.504Z,9.74
2023-04-18T03:36:25.578Z,9.79
2023-04-18T03:38:57.851Z,9.79
2023-04-18T03:41:31.390Z,9.71
2023-04-18T03:44:01.591Z,9.69
2023-04-18T03:46:31.920Z,9.70
2023-04-18T03:49:02.449Z,9.72
2023-04-18T03:51:36.877Z,9.73
2023-04-18T03:54:07.071Z,9.73
2023-04-18T03:56:40.058Z,9.70
2023-04-18T03:59:11.073Z,9.70
2023-04-18T04:01:41.751Z,9.75
2023-04-18T04:04:12.586Z,9.73
2023-04-18T04:06:43.237Z,9.66
2023-04-18T04:09:13.670Z,9.71
2023-04-18T04:11:46.736Z,9.69
2023-04-18T04:14:18.710Z,9.68
2023-04-18T04:16:49.998Z,9.62
2023-04-18T04:19:21.015Z,9.64
2023-04-18T04:21:58.904Z,9.66
2023-04-18T04:24:29.929Z,9.67
2023-04-18T04:27:03.941Z,9.72
2023-04-18T04:29:35.548Z,9.76
2023-04-18T04:32:06.804Z,9.77
2023-04-18T04:34:41.592Z,9.71
2023-04-18T04:37:14.231Z,9.80
2023-04-18T04:40:01.135Z,9.80
2023-04-18T04:42:47.498Z,9.73
2023-04-18T04:45:24.665Z,9.74
2023-04-18T04:47:55.961Z,9.69
2023-04-18T04:50:26.650Z,9.71
2023-04-18T04:52:56.937Z,9.69
2023-04-18T04:55:27.656Z,9.74
2023-04-18T04:58:00.753Z,9.74
2023-04-18T05:00:54.317Z,9.72
2023-04-18T05:03:24.989Z,9.71
2023-04-18T05:05:55.521Z,9.70
2023-04-18T05:08:26.421Z,9.67
2023-04-18T05:10:56.649Z,9.60
2023-04-18T05:13:29.473Z,9.66
2023-04-18T05:15:59.861Z,9.67
2023-04-18T05:18:30.059Z,9.67
2023-04-18T05:21:00.254Z,9.64
2023-04-18T05:23:30.859Z,9.54
2023-04-18T05:26:01.221Z,9.57
2023-04-18T05:28:34.263Z,9.57
2023-04-18T05:31:07.740Z,9.59
2023-04-18T05:33:37.967Z,9.54
2023-04-18T05:36:09.569Z,9.53
2023-04-18T05:38:39.806Z,9.48
2023-04-18T05:41:10.085Z,9.46
2023-04-18T05:43:44.466Z,9.48
2023-04-18T05:46:18.612Z,9.41
2023-04-18T05:48:48.915Z,9.38
2023-04-18T05:51:19.346Z,9.37
2023-04-18T05:53:49.725Z,9.35
2023-04-18T05:56:19.951Z,9.35
2023-04-18T05:58:55.638Z,9.31
2023-04-18T06:01:25.901Z,9.29
2023-04-18T06:03:56.873Z,9.34
2023-04-18T06:06:27.882Z,9.27
2023-04-18T06:08:58.370Z,9.25
2023-04-18T06:11:28.781Z,9.25
2023-04-18T06:14:03.038Z,9.23
2023-04-18T06:16:33.388Z,9.18
2023-04-18T06:19:03.605Z,9.15
2023-04-18T06:21:33.973Z,9.11
2023-04-18T06:24:04.465Z,9.16
2023-04-18T06:26:34.734Z,9.15
2023-04-18T06:29:13.470Z,9.14
2023-04-18T06:31:46.404Z,9.15
2023-04-18T06:34:16.914Z,9.17
2023-04-18T06:36:47.139Z,9.22
2023-04-18T06:39:17.382Z,9.25
2023-04-18T06:41:47.612Z,9.28
2023-04-18T06:44:29.926Z,9.26
2023-04-18T06:47:00.194Z,9.25
2023-04-18T06:49:30.459Z,9.24
2023-04-18T06:52:00.719Z,9.25
2023-04-18T06:54:31.045Z,9.25
2023-04-18T06:57:02.322Z,9.28
2023-04-18T06:59:35.829Z,9.28
2023-04-18T07:02:06.302Z,9.29
2023-04-18T07:04:36.748Z,9.34
2023-04-18T07:07:07.717Z,9.32
2023-04-18T07:09:37.975Z,9.26
2023-04-18T07:12:08.928Z,9.29
2023-04-18T07:14:42.210Z,9.31
2023-04-18T07:17:12.462Z,9.37
2023-04-18T07:19:43.510Z,9.38
2023-04-18T07:22:14.074Z,9.37
2023-04-18T07:24:44.395Z,9.36
2023-04-18T07:27:14.596Z,9.36
2023-04-18T07:29:47.466Z,9.46
2023-04-18T07:32:17.762Z,9.45
2023-04-18T07:34:48.277Z,9.52
2023-04-18T07:37:19.262Z,9.44
2023-04-18T07:39:49.432Z,9.43
2023-04-18T07:42:19.751Z,9.45
2023-04-18T07:44:52.640Z,9.54
2023-04-18T07:47:22.927Z,9.57
2023-04-18T07:49:53.192Z,9.59
2023-04-18T07:52:23.405Z,9.59
2023-04-18T07:54:53.674Z,9.59
2023-04-18T07:57:23.869Z,9.59
2023-04-18T07:59:57.232Z,9.63
2023-04-18T08:02:27.591Z,9.69
2023-04-18T08:04:58.817Z,9.77
2023-04-18T08:07:29.123Z,9.84
2023-04-18T08:09:59.379Z,9.92
2023-04-18T08:12:29.618Z,9.95
2023-04-18T08:15:02.528Z,9.89
2023-04-18T08:17:33.318Z,9.94
2023-04-18T08:20:05.325Z,10.04
2023-04-18T08:22:39.385Z,9.98
2023-04-18T08:25:17.072Z,9.89
2023-04-18T08:27:47.211Z,9.91
2023-04-18T08:30:20.221Z,9.94
2023-04-18T08:32:50.493Z,9.84
2023-04-18T08:35:20.829Z,9.70
2023-04-18T08:37:51.095Z,9.64
2023-04-18T08:40:21.515Z,9.62
2023-04-18T08:42:52.757Z,9.63
2023-04-18T08:45:26.517Z,9.62
2023-04-18T08:47:59.099Z,9.69
2023-04-18T08:50:29.319Z,9.67
2023-04-18T08:52:59.589Z,9.74
2023-04-18T08:55:29.878Z,9.77
2023-04-18T08:58:00.136Z,9.75
2023-04-18T09:00:33.023Z,9.82
2023-04-18T09:03:04.150Z,9.85
2023-04-18T09:05:35.839Z,9.84
2023-04-18T09:08:24.952Z,9.91
2023-04-18T09:10:55.196Z,9.99
2023-04-18T09:13:47.711Z,9.94
2023-04-18T09:16:23.256Z,9.99
2023-04-18T09:19:13.217Z,10.05
2023-04-18T09:21:47.495Z,10.10
2023-04-18T09:24:24.431Z,10.11
2023-04-18T09:26:56.078Z,10.13
2023-04-18T09:29:30.316Z,10.04
2023-04-18T09:32:03.885Z,10.10
2023-04-18T09:34:34.669Z,10.09
2023-04-18T09:37:12.171Z,9.99
2023-04-18T09:39:44.170Z,9.99
2023-04-18T09:42:14.914Z,9.97
2023-04-18T09:45:02.420Z,9.99
2023-04-18T09:47:36.712Z,10.07
2023-04-18T09:50:07.854Z,10.10
2023-04-18T09:52:39.671Z,10.13
2023-04-18T09:55:11.848Z,10.15
2023-04-18T09:57:43.623Z,10.09
2023-04-18T10:00:17.920Z,10.13
2023-04-18T10:02:58.449Z,10.13
2023-04-18T10:05:30.067Z,10.15
2023-04-18T10:08:01.092Z,10.19
2023-04-18T10:10:31.535Z,10.21
2023-04-18T10:13:03.209Z,10.32
2023-04-18T10:15:34.548Z,10.29
2023-04-18T10:18:16.401Z,10.24
2023-04-18T10:20:49.251Z,10.22
2023-04-18T10:23:37.882Z,10.19
2023-04-18T10:26:08.975Z,10.22
2023-04-18T10:29:02.878Z,10.23
2023-04-18T10:31:33.072Z,10.23
2023-04-18T10:34:17.650Z,10.24
2023-04-18T10:37:08.578Z,10.25
2023-04-18T10:39:53.963Z,10.26
2023-04-18T10:43:01.230Z,10.30
2023-04-18T10:45:36.678Z,10.35
2023-04-18T10:48:30.302Z,10.37
2023-04-18T10:51:24.473Z,10.37
2023-04-18T10:53:56.164Z,10.37
2023-04-18T10:56:28.331Z,10.39
2023-04-18T10:59:01.656Z,10.41
2023-04-18T11:01:34.232Z,10.45
2023-04-18T11:04:04.654Z,10.49
2023-04-18T11:06:50.465Z,10.57
2023-04-18T11:09:20.685Z,10.63
2023-04-18T11:12:06.463Z,10.63
2023-04-18T11:14:46.380Z,10.65
2023-04-18T11:17:26.174Z,10.64
2023-04-18T11:20:05.377Z,10.57
2023-04-18T11:22:49.395Z,10.49
2023-04-18T11:25:20.512Z,10.50
2023-04-18T11:27:55.299Z,10.45
2023-04-18T11:30:25.578Z,10.52
2023-04-18T11:32:57.036Z,10.54
2023-04-18T11:35:27.605Z,10.56
2023-04-18T11:38:00.460Z,10.67
2023-04-18T11:40:30.912Z,10.74
2023-04-18T11:43:04.453Z,10.79
2023-04-18T11:45:35.068Z,10.88
2023-04-18T11:48:06.371Z,10.88
2023-04-18T11:50:40.110Z,10.88
2023-04-18T11:53:13.011Z,10.89
2023-04-18T11:55:44.035Z,10.90
2023-04-18T11:58:14.906Z,10.91
2023-04-18T12:00:45.135Z,10.89
2023-04-18T12:03:19.451Z,10.93
2023-04-18T12:05:51.642Z,10.96
2023-04-18T12:08:24.580Z,10.99
2023-04-18T12:10:56.154Z,10.98
2023-04-18T12:13:35.108Z,11.00
2023-04-18T12:16:05.820Z,10.96
2023-04-18T12:18:36.894Z,11.01
2023-04-18T12:21:09.439Z,10.99
2023-04-18T12:23:46.132Z,11.01
2023-04-18T12:26:19.421Z,11.07
2023-04-18T12:28:55.397Z,11.04
2023-04-18T12:31:28.960Z,10.98
2023-04-18T12:34:02.022Z,10.95
2023-04-18T12:36:32.312Z,10.97
2023-04-18T12:39:05.333Z,11.00
2023-04-18T12:41:35.761Z,10.92
2023-04-18T12:44:06.125Z,10.83
2023-04-18T12:46:36.455Z,10.80
2023-04-18T12:49:06.786Z,10.78
2023-04-18T12:51:37.083Z,10.73
2023-04-18T12:54:10.070Z,10.68
2023-04-18T12:56:40.290Z,10.63
2023-04-18T12:59:10.530Z,10.60
2023-04-18T13:01:40.794Z,10.50
2023-04-18T13:04:12.822Z,10.49
2023-04-18T13:06:43.732Z,10.50
2023-04-18T13:09:16.851Z,10.42
2023-04-18T13:11:49.061Z,10.43
2023-04-18T13:14:19.970Z,10.38
2023-04-18T13:16:52.835Z,10.40
2023-04-18T13:19:23.109Z,10.40
2023-04-18T13:21:53.690Z,10.38
2023-04-18T13:24:26.638Z,10.35
2023-04-18T13:26:56.968Z,10.36
2023-04-18T13:29:27.254Z,10.39
2023-04-18T13:31:57.605Z,10.46
2023-04-18T13:34:27.848Z,10.46
2023-04-18T13:36:59.094Z,10.52
2023-04-18T13:39:33.911Z,10.55
2023-04-18T13:42:05.368Z,10.52
2023-04-18T13:44:35.599Z,10.55
2023-04-18T13:47:06.828Z,10.58
2023-04-18T13:49:37.872Z,10.50
2023-04-18T13:52:08.477Z,10.36
2023-04-18T13:54:41.647Z,10.36
2023-04-18T13:57:14.886Z,10.46
2023-04-18T13:59:45.171Z,10.42
2023-04-18T14:02:15.525Z,10.41
2023-04-18T14:04:45.973Z,10.38
2023-04-18T14:07:16.851Z,10.42
2023-04-18T14:09:51.204Z,10.43
2023-04-18T14:12:22.777Z,10.46
2023-04-18T14:14:53.011Z,10.44
2023-04-18T14:17:23.439Z,10.46
2023-04-18T14:19:53.786Z,10.45
2023-04-18T14:22:24.103Z,10.46
2023-04-18T14:24:57.437Z,10.48
2023-04-18T14:27:28.056Z,10.54
2023-04-18T14:29:58.320Z,10.55
2023-04-18T14:32:30.295Z,10.57
2023-04-18T14:35:00.589Z,10.59
2023-04-18T14:37:31.076Z,10.58
2023-04-18T14:40:08.393Z,10.61
2023-04-18T14:42:39.118Z,10.59
2023-04-18T14:45:11.938Z,10.56
2023-04-18T14:47:42.305Z,10.58
2023-04-18T14:50:15.520Z,10.64
2023-04-18T14:52:45.955Z,10.60
2023-04-18T14:55:19.670Z,10.66
2023-04-18T14:57:49.903Z,10.67
2023-04-18T15:00:20.883Z,10.66
2023-04-18T15:02:51.300Z,10.73
2023-04-18T15:05:24.053Z,10.70
2023-04-18T15:07:56.293Z,10.67
2023-04-18T15:10:29.219Z,10.65
2023-04-18T15:12:59.402Z,10.73
2023-04-18T15:15:30.795Z,10.75
2023-04-18T15:18:01.261Z,10.72
2023-04-18T15:20:32.303Z,10.76
2023-04-18T15:23:02.952Z,10.76
2023-04-18T15:25:36.092Z,10.72
2023-04-18T15:28:07.388Z,10.74
2023-04-18T15:30:37.833Z,10.75
2023-04-18T15:33:08.307Z,10.78
2023-04-18T15:35:38.824Z,10.77
2023-04-18T15:38:09.083Z,10.81
2023-04-18T15:40:43.655Z,10.88
2023-04-18T15:43:14.007Z,10.88
2023-04-18T15:45:44.865Z,10.82
2023-04-18T15:48:15.795Z,10.78
2023-04-18T15:50:45.959Z,10.74
2023-04-18T15:53:16.365Z,10.64
2023-04-18T15:55:51.058Z,10.58
2023-04-18T15:58:22.186Z,10.55
2023-04-18T16:00:53.242Z,10.58
2023-04-18T16:03:24.230Z,10.55
2023-04-18T16:05:55.245Z,10.53
2023-04-18T16:08:25.844Z,10.52
2023-04-18T16:10:59.047Z,10.50
2023-04-18T16:13:31.588Z,10.52
2023-04-18T16:16:01.869Z,10.48
2023-04-18T16:18:32.363Z,10.44
2023-04-18T16:21:02.744Z,10.46
2023-04-18T16:23:34.885Z,10.49
2023-04-18T16:26:09.374Z,10.49
2023-04-18T16:28:39.906Z,10.49
2023-04-18T16:31:10.214Z,10.56
2023-04-18T16:33:40.493Z,10.58
2023-04-18T16:36:12.639Z,10.57
2023-04-18T16:38:45.558Z,10.54
2023-04-18T16:41:18.536Z,10.53
2023-04-18T16:43:49.138Z,10.58
2023-04-18T16:46:19.855Z,10.58
2023-04-18T16:48:52.968Z,10.57
2023-04-18T16:51:23.500Z,10.57
2023-04-18T16:53:53.998Z,10.60
2023-04-18T16:56:27.054Z,10.58
2023-04-18T16:59:01.436Z,10.56
2023-04-18T17:01:32.182Z,10.55
2023-04-18T17:04:02.563Z,10.60
2023-04-18T17:06:32.874Z,10.60
2023-04-18T17:09:06.511Z,10.62
2023-04-18T17:11:41.109Z,10.64
2023-04-18T17:14:11.822Z,10.64
2023-04-18T17:16:43.690Z,10.65
2023-04-18T17:19:14.676Z,10.65
2023-04-18T17:21:45.129Z,10.68
2023-04-18T17:24:15.338Z,10.63
2023-04-18T17:26:48.179Z,10.69
2023-04-18T17:29:18.846Z,10.71
2023-04-18T17:31:49.255Z,10.74
2023-04-18T17:34:19.716Z,10.66
2023-04-18T17:36:52.517Z,10.56
2023-04-18T17:39:22.961Z,10.60
2023-04-18T17:41:56.159Z,10.61
2023-04-18T17:44:26.598Z,10.65
2023-04-18T17:46:56.887Z,10.61
2023-04-18T17:49:31.613Z,10.65
2023-04-18T17:52:01.870Z,10.64
2023-04-18T17:54:32.202Z,10.66
2023-04-18T17:57:05.050Z,10.64
2023-04-18T17:59:37.969Z,10.64
2023-04-18T18:02:08.360Z,10.64
2023-04-18T18:04:38.894Z,10.63
2023-04-18T18:07:09.430Z,10.61
2023-04-18T18:09:41.029Z,10.65
2023-04-18T18:12:14.193Z,10.65
2023-04-18T18:14:44.462Z,10.64
2023-04-18T18:17:17.833Z,10.60
2023-04-18T18:19:48.027Z,10.63
2023-04-18T18:22:18.606Z,10.68
2023-04-18T18:24:48.821Z,10.68
2023-04-18T18:27:22.631Z,10.67
2023-04-18T18:29:53.010Z,10.68
2023-04-18T18:32:23.776Z,10.69
2023-04-18T18:34:54.014Z,10.73
2023-04-18T18:37:26.201Z,10.71
2023-04-18T18:39:57.322Z,10.73
2023-04-18T18:42:30.323Z,10.68
2023-04-18T18:45:01.771Z,10.73
2023-04-18T18:47:32.399Z,10.71
2023-04-18T18:50:02.846Z,10.70
2023-04-18T18:52:34.300Z,10.73
2023-04-18T18:55:04.804Z,10.73
2023-04-18T18:57:37.883Z,10.76
2023-04-18T19:00:11.009Z,10.73
2023-04-18T19:02:41.864Z,10.73
2023-04-18T19:05:12.937Z,10.81
2023-04-18T19:07:44.588Z,10.86
2023-04-18T19:10:14.789Z,10.89
2023-04-18T19:12:47.617Z,10.89
2023-04-18T19:15:18.224Z,10.87
2023-04-18T19:17:48.448Z,10.89
2023-04-18T19:20:18.786Z,10.90
2023-04-18T19:22:49.047Z,10.94
2023-04-18T19:25:19.316Z,10.96
2023-04-18T19:27:52.178Z,10.95
2023-04-18T19:30:22.626Z,11.00
2023-04-18T19:32:52.905Z,11.02
2023-04-18T19:35:23.669Z,11.00
2023-04-18T19:37:56.143Z,10.97
2023-04-18T19:40:26.913Z,10.94
2023-04-18T19:43:00.207Z,11.01
2023-04-18T19:45:30.719Z,11.07
2023-04-18T19:48:01.040Z,11.09
2023-04-18T19:50:31.336Z,11.08
2023-04-18T19:53:01.650Z,11.10
2023-04-18T19:55:32.029Z,11.04
2023-04-18T19:58:05.494Z,11.01
2023-04-18T20:00:36.164Z,10.95
2023-04-18T20:03:06.605Z,10.96
2023-04-18T20:05:37.102Z,10.95
2023-04-18T20:08:07.559Z,11.02
2023-04-18T20:10:38.012Z,11.03
2023-04-18T20:13:11.092Z,11.01
2023-04-18T20:15:41.275Z,11.08
2023-04-18T20:18:11.464Z,11.11
2023-04-18T20:20:41.630Z,11.14
2023-04-18T20:23:11.826Z,11.13
2023-04-18T20:25:42.064Z,11.15
2023-04-18T20:28:14.940Z,11.19
2023-04-18T20:30:45.943Z,11.15
2023-04-18T20:33:16.170Z,11.09
2023-04-18T20:35:47.040Z,11.09
2023-04-18T20:38:17.302Z,11.12
2023-04-18T20:40:49.148Z,11.14
2023-04-18T20:43:22.974Z,11.08
2023-04-18T20:45:54.016Z,11.04
2023-04-18T20:48:24.474Z,11.04
2023-04-18T20:50:54.702Z,11.07
2023-04-18T20:53:26.284Z,11.08
2023-04-18T20:55:56.526Z,11.07
2023-04-18T20:58:29.359Z,11.07
2023-04-18T21:00:59.648Z,11.08
2023-04-18T21:03:30.169Z,11.14
2023-04-18T21:06:00.478Z,11.11
2023-04-18T21:08:31.892Z,11.15
2023-04-18T21:11:02.192Z,11.13
2023-04-18T21:13:35.799Z,11.17
2023-04-18T21:16:07.958Z,11.18
2023-04-18T21:18:38.339Z,11.20
2023-04-18T21:21:09.197Z,11.18
2023-04-18T21:23:45.229Z,11.17
2023-04-18T21:26:16.180Z,11.16
2023-04-18T21:29:02.856Z,11.19
2023-04-18T21:31:34.316Z,11.14
2023-04-18T21:34:06.214Z,11.13
2023-04-18T21:36:36.563Z,11.14
2023-04-18T21:39:07.157Z,11.18
2023-04-18T21:41:37.513Z,11.20
2023-04-18T21:44:10.849Z,11.15
2023-04-18T21:46:41.118Z,11.15
2023-04-18T21:49:11.342Z,11.14
2023-04-18T21:51:41.643Z,11.15
2023-04-18T21:54:12.086Z,11.19
2023-04-18T21:56:43.118Z,11.22
2023-04-18T21:59:16.194Z,11.25
2023-04-18T22:01:48.749Z,11.23
2023-04-18T22:04:21.298Z,11.25
2023-04-18T22:06:54.276Z,11.22
2023-04-18T22:09:24.798Z,11.18
2023-04-18T22:11:57.088Z,11.15
2023-04-18T22:14:33.437Z,11.09
2023-04-18T22:17:05.004Z,11.05
2023-04-18T22:19:36.002Z,11.11
2023-04-18T22:22:06.301Z,11.19
2023-04-18T22:24:36.744Z,11.14
2023-04-18T22:27:07.148Z,11.03
2023-04-18T22:29:40.146Z,11.00
2023-04-18T22:32:14.948Z,10.98
2023-04-18T22:34:45.217Z,10.99
2023-04-18T22:37:15.389Z,11.08
2023-04-18T22:39:46.035Z,11.06
2023-04-18T22:42:16.325Z,11.08
2023-04-18T22:44:49.140Z,11.08
2023-04-18T22:47:21.639Z,11.04
2023-04-18T22:49:52.177Z,10.88
2023-04-18T22:52:24.985Z,10.96
2023-04-18T22:54:55.497Z,11.00
2023-04-18T22:57:26.129Z,11.02
2023-04-18T22:59:59.028Z,11.04
2023-04-18T23:02:29.347Z,11.04
2023-04-18T23:05:02.656Z,10.99
2023-04-18T23:07:33.279Z,10.97
2023-04-18T23:10:03.454Z,10.95
2023-04-18T23:12:33.751Z,10.93
2023-04-18T23:15:09.823Z,10.91
2023-04-18T23:17:42.823Z,10.92
2023-04-18T23:20:14.838Z,10.91
2023-04-18T23:22:45.078Z,10.89
2023-04-18T23:25:15.445Z,10.89
2023-04-18T23:27:48.177Z,10.91
2023-04-18T23:30:21.039Z,10.93
2023-04-18T23:32:51.356Z,10.95
2023-04-18T23:35:21.910Z,10.96
2023-04-18T23:37:52.525Z,10.93
2023-04-18T23:40:23.504Z,10.91
2023-04-18T23:42:53.818Z,10.93
2023-04-18T23:45:31.954Z,10.95
2023-04-18T23:48:02.500Z,10.93
2023-04-18T23:50:32.923Z,10.95
2023-04-18T23:53:03.292Z,10.98
2023-04-18T23:55:33.454Z,10.99
2023-04-18T23:58:04.052Z,10.97
